createdAt,value
2018-10-17T00:01:32.672Z,6.43
2018-10-17T00:04:02.096Z,6.13
2018-10-17T00:06:31.483Z,6.83
2018-10-17T00:09:00.903Z,6.93
2018-10-17T00:11:30.346Z,6.40
2018-10-17T00:13:59.609Z,6.53
2018-10-17T00:16:29.191Z,6.40
2018-10-17T00:18:58.460Z,6.73
2018-10-17T00:21:27.579Z,6.77
2018-10-17T00:23:56.823Z,6.90
2018-10-17T00:26:25.979Z,6.70
2018-10-17T00:28:55.806Z,6.63
2018-10-17T00:31:24.936Z,6.60
2018-10-17T00:33:54.060Z,7.50
2018-10-17T00:36:23.515Z,7.10
2018-10-17T00:38:52.914Z,7.13
2018-10-17T00:41:21.995Z,6.80
2018-10-17T00:43:51.515Z,6.87
2018-10-17T00:46:20.547Z,6.70
2018-10-17T00:48:49.843Z,7.57
2018-10-17T00:51:19.408Z,7.10
2018-10-17T00:53:48.330Z,6.67
2018-10-17T00:56:17.484Z,6.63
2018-10-17T00:58:58.045Z,6.97
2018-10-17T01:01:27.163Z,6.70
2018-10-17T01:03:56.291Z,6.67
2018-10-17T01:06:25.409Z,6.57
2018-10-17T01:08:54.723Z,6.63
2018-10-17T01:11:23.906Z,6.50
2018-10-17T01:13:53.271Z,6.27
2018-10-17T01:16:22.641Z,6.77
2018-10-17T01:18:51.930Z,6.03
2018-10-17T01:21:21.119Z,6.27
2018-10-17T01:23:50.216Z,6.17
2018-10-17T01:26:19.691Z,6.23
2018-10-17T01:28:48.763Z,7.07
2018-10-17T01:31:17.768Z,6.57
2018-10-17T01:33:46.664Z,6.70
2018-10-17T01:36:15.796Z,7.40
2018-10-17T01:38:45.299Z,6.40
2018-10-17T01:41:14.806Z,7.53
2018-10-17T01:43:44.071Z,6.87
2018-10-17T01:46:13.232Z,7.33
2018-10-17T01:48:42.191Z,7.00
2018-10-17T01:51:11.443Z,6.67
2018-10-17T01:53:40.824Z,7.10
2018-10-17T01:56:09.787Z,7.23
2018-10-17T01:58:38.882Z,7.77
2018-10-17T02:01:08.314Z,7.17
2018-10-17T02:03:37.399Z,7.53
2018-10-17T02:06:07.001Z,7.77
2018-10-17T02:08:36.079Z,6.97
2018-10-17T02:11:05.219Z,7.77
2018-10-17T02:13:34.510Z,7.43
2018-10-17T02:16:03.763Z,7.77
2018-10-17T02:18:33.224Z,7.27
2018-10-17T02:21:02.512Z,7.47
2018-10-17T02:23:31.523Z,8.30
2018-10-17T02:26:00.515Z,7.97
2018-10-17T02:28:29.999Z,7.97
2018-10-17T02:30:59.173Z,7.90
2018-10-17T02:33:28.286Z,7.97
2018-10-17T02:35:57.404Z,8.10
2018-10-17T02:38:26.330Z,8.30
2018-10-17T02:40:55.634Z,8.13
2018-10-17T02:43:24.700Z,8.13
2018-10-17T02:45:53.647Z,9.10
2018-10-17T02:48:22.584Z,8.93
2018-10-17T02:50:51.989Z,8.40
2018-10-17T02:53:21.024Z,8.90
2018-10-17T02:55:50.225Z,8.93
2018-10-17T02:58:19.501Z,8.87
2018-10-17T03:00:48.528Z,8.87
2018-10-17T03:03:17.520Z,8.93
2018-10-17T03:05:46.781Z,9.17
2018-10-17T03:08:15.972Z,9.70
2018-10-17T03:10:45.480Z,8.87
2018-10-17T03:13:14.849Z,9.13
2018-10-17T03:15:43.840Z,10.77
2018-10-17T03:18:12.900Z,9.97
2018-10-17T03:20:42.056Z,10.43
2018-10-17T03:23:11.364Z,11.57
2018-10-17T03:25:40.389Z,10.73
2018-10-17T03:28:09.481Z,10.53
2018-10-17T03:30:38.601Z,10.93
2018-10-17T03:33:07.661Z,10.77
2018-10-17T03:35:36.901Z,10.33
2018-10-17T03:38:06.182Z,11.40
2018-10-17T03:40:35.285Z,11.37
2018-10-17T03:43:04.389Z,11.43
2018-10-17T03:45:33.591Z,12.33
2018-10-17T03:48:02.556Z,12.00
2018-10-17T03:50:31.558Z,12.20
2018-10-17T03:53:00.519Z,12.83
2018-10-17T03:55:29.656Z,12.83
2018-10-17T03:57:58.736Z,12.90
2018-10-17T04:00:27.876Z,13.47
2018-10-17T04:02:57.237Z,13.43
2018-10-17T04:05:26.115Z,13.73
2018-10-17T04:07:55.082Z,13.37
2018-10-17T04:10:24.100Z,14.30
2018-10-17T04:12:53.364Z,14.47
2018-10-17T04:15:22.359Z,14.77
2018-10-17T04:17:51.724Z,14.87
2018-10-17T04:20:20.745Z,14.80
2018-10-17T04:22:54.653Z,15.83
2018-10-17T04:25:23.747Z,15.53
2018-10-17T04:27:54.424Z,15.50
2018-10-17T04:30:23.603Z,15.73
2018-10-17T04:32:52.615Z,16.57
2018-10-17T04:35:21.651Z,15.23
2018-10-17T04:37:50.826Z,15.10
2018-10-17T04:40:20.026Z,15.43
2018-10-17T04:42:49.585Z,16.93
2018-10-17T04:45:18.600Z,17.57
2018-10-17T04:47:47.852Z,16.03
2018-10-17T04:50:16.923Z,16.37
2018-10-17T04:52:46.272Z,16.53
2018-10-17T04:55:15.425Z,16.37
2018-10-17T04:57:44.507Z,17.70
2018-10-17T05:00:13.956Z,18.37
2018-10-17T05:02:43.724Z,17.07
2018-10-17T05:05:13.390Z,17.70
2018-10-17T05:07:42.260Z,17.03
2018-10-17T05:10:11.333Z,17.50
2018-10-17T05:12:40.212Z,17.53
2018-10-17T05:15:09.932Z,17.73
2018-10-17T05:17:39.788Z,17.80
2018-10-17T05:20:08.964Z,16.77
2018-10-17T05:22:38.240Z,18.77
2018-10-17T05:25:08.209Z,18.10
2018-10-17T05:27:37.203Z,18.83
2018-10-17T05:30:06.749Z,18.97
2018-10-17T05:32:36.259Z,19.60
2018-10-17T05:35:05.682Z,18.03
2018-10-17T05:37:35.842Z,19.57
2018-10-17T05:40:05.284Z,19.37
2018-10-17T05:42:34.489Z,19.37
2018-10-17T05:45:03.684Z,20.17
2018-10-17T05:47:32.748Z,19.67
2018-10-17T05:50:02.110Z,19.80
2018-10-17T05:52:31.321Z,18.57
2018-10-17T05:55:00.433Z,20.00
2018-10-17T05:57:30.540Z,19.87
2018-10-17T05:59:59.556Z,19.43
2018-10-17T06:02:32.259Z,19.67
2018-10-17T06:05:01.513Z,19.67
2018-10-17T06:07:30.712Z,20.67
2018-10-17T06:09:59.868Z,21.47
2018-10-17T06:12:29.000Z,22.13
2018-10-17T06:14:58.113Z,21.23
2018-10-17T06:17:27.043Z,19.70
2018-10-17T06:19:55.975Z,21.67
2018-10-17T06:22:24.944Z,20.57
2018-10-17T06:24:54.051Z,21.03
2018-10-17T06:27:23.105Z,21.33
2018-10-17T06:29:52.410Z,21.87
2018-10-17T06:32:21.717Z,21.87
2018-10-17T06:34:51.093Z,21.33
2018-10-17T06:37:20.114Z,21.07
2018-10-17T06:39:49.535Z,22.73
2018-10-17T06:42:18.565Z,21.27
2018-10-17T06:44:47.552Z,21.63
2018-10-17T06:47:16.645Z,21.33
2018-10-17T06:49:45.540Z,22.13
2018-10-17T06:52:15.163Z,22.93
2018-10-17T06:54:44.119Z,22.07
2018-10-17T06:57:13.472Z,21.23
2018-10-17T06:59:42.336Z,21.07
2018-10-17T07:02:11.348Z,20.63
2018-10-17T07:04:40.332Z,20.90
2018-10-17T07:07:09.473Z,22.00
2018-10-17T07:09:38.264Z,22.97
2018-10-17T07:12:07.362Z,23.03
2018-10-17T07:14:36.391Z,22.40
2018-10-17T07:17:05.987Z,22.50
2018-10-17T07:19:35.017Z,21.87
2018-10-17T07:22:04.012Z,22.40
2018-10-17T07:24:33.186Z,22.77
2018-10-17T07:27:02.513Z,22.27
2018-10-17T07:29:31.782Z,22.50
2018-10-17T07:32:00.927Z,23.00
2018-10-17T07:34:30.197Z,22.50
2018-10-17T07:36:59.244Z,22.07
2018-10-17T07:39:28.188Z,23.10
2018-10-17T07:41:57.416Z,21.87
2018-10-17T07:44:26.551Z,22.43
2018-10-17T07:46:55.800Z,22.33
2018-10-17T07:49:24.975Z,22.60
2018-10-17T07:51:54.258Z,22.90
2018-10-17T07:54:23.254Z,22.27
2018-10-17T07:56:52.654Z,22.23
2018-10-17T07:59:21.842Z,22.83
2018-10-17T08:01:51.215Z,23.83
2018-10-17T08:04:20.211Z,22.27
2018-10-17T08:06:49.232Z,22.57
2018-10-17T08:09:18.305Z,22.47
2018-10-17T08:11:47.504Z,21.93
2018-10-17T08:14:16.578Z,21.77
2018-10-17T08:16:45.725Z,22.60
2018-10-17T08:19:14.841Z,21.97
2018-10-17T08:21:43.826Z,22.27
2018-10-17T08:24:12.874Z,22.27
2018-10-17T08:26:42.384Z,23.10
2018-10-17T08:29:11.628Z,22.20
2018-10-17T08:31:40.748Z,23.33
2018-10-17T08:34:11.065Z,21.77
2018-10-17T08:36:40.217Z,21.90
2018-10-17T08:39:10.184Z,22.17
2018-10-17T08:41:39.421Z,23.50
2018-10-17T08:44:08.556Z,24.47
2018-10-17T08:46:37.676Z,23.50
2018-10-17T08:49:06.684Z,23.53
2018-10-17T08:51:35.636Z,22.07
2018-10-17T08:54:04.995Z,22.57
2018-10-17T08:56:34.368Z,22.37
2018-10-17T08:59:03.239Z,22.30
2018-10-17T09:01:32.547Z,21.63
2018-10-17T09:04:02.820Z,22.53
2018-10-17T09:06:32.093Z,21.97
2018-10-17T09:09:01.158Z,21.47
2018-10-17T09:11:30.090Z,21.50
2018-10-17T09:13:59.379Z,22.50
2018-10-17T09:16:28.518Z,21.93
2018-10-17T09:18:58.300Z,22.17
2018-10-17T09:21:27.678Z,21.77
2018-10-17T09:23:56.845Z,22.77
2018-10-17T09:26:26.304Z,21.53
2018-10-17T09:28:55.268Z,22.10
2018-10-17T09:31:24.184Z,21.77
2018-10-17T09:33:53.447Z,21.90
2018-10-17T09:36:22.894Z,20.83
2018-10-17T09:38:52.094Z,20.70
2018-10-17T09:41:21.196Z,20.07
2018-10-17T09:43:50.364Z,20.90
2018-10-17T09:46:19.657Z,20.63
2018-10-17T09:48:48.747Z,20.63
2018-10-17T09:51:18.044Z,20.63
2018-10-17T09:53:46.924Z,20.60
2018-10-17T09:56:16.128Z,21.30
2018-10-17T09:58:45.224Z,19.43
2018-10-17T10:01:20.679Z,22.10
2018-10-17T10:03:49.684Z,21.57
2018-10-17T10:06:19.092Z,22.33
2018-10-17T10:08:48.212Z,22.47
2018-10-17T10:11:17.413Z,20.97
2018-10-17T10:13:46.576Z,22.60
2018-10-17T10:16:15.848Z,23.07
2018-10-17T10:18:45.256Z,22.67
2018-10-17T10:21:14.284Z,20.63
2018-10-17T10:23:43.396Z,19.60
2018-10-17T10:26:12.575Z,19.57
2018-10-17T10:28:41.645Z,19.80
2018-10-17T10:31:11.233Z,19.77
2018-10-17T10:33:40.844Z,17.47
2018-10-17T10:36:09.901Z,17.33
2018-10-17T10:38:38.988Z,18.17
2018-10-17T10:41:08.615Z,17.40
2018-10-17T10:43:37.701Z,16.03
2018-10-17T10:46:07.248Z,15.37
2018-10-17T10:48:36.581Z,16.63
2018-10-17T10:51:06.083Z,16.20
2018-10-17T10:53:35.263Z,15.47
2018-10-17T10:56:05.053Z,15.27
2018-10-17T10:58:34.083Z,14.50
2018-10-17T11:01:03.122Z,14.27
2018-10-17T11:03:32.095Z,14.00
2018-10-17T11:06:01.268Z,12.97
2018-10-17T11:08:30.508Z,12.77
2018-10-17T11:10:59.955Z,13.30
2018-10-17T11:13:29.740Z,13.23
2018-10-17T11:15:58.964Z,12.80
2018-10-17T11:18:27.807Z,12.70
2018-10-17T11:20:57.275Z,12.63
2018-10-17T11:23:26.541Z,12.67
2018-10-17T11:25:56.071Z,12.30
2018-10-17T11:28:24.974Z,11.70
2018-10-17T11:30:54.038Z,11.87
2018-10-17T11:33:23.089Z,12.37
2018-10-17T11:35:52.259Z,12.60
2018-10-17T11:38:21.324Z,12.03
2018-10-17T11:40:50.413Z,13.17
2018-10-17T11:43:20.570Z,12.87
2018-10-17T11:45:49.516Z,13.23
2018-10-17T11:48:18.884Z,12.07
2018-10-17T11:50:47.911Z,12.13
2018-10-17T11:53:17.295Z,12.43
2018-10-17T11:55:46.222Z,12.80
2018-10-17T11:58:15.784Z,13.07
2018-10-17T12:00:44.843Z,12.97
2018-10-17T12:03:14.207Z,12.63
2018-10-17T12:05:43.421Z,13.53
2018-10-17T12:08:12.611Z,12.47
2018-10-17T12:10:41.570Z,12.43
2018-10-17T12:13:10.685Z,13.63
2018-10-17T12:15:42.618Z,14.47
2018-10-17T12:18:11.913Z,12.83
2018-10-17T12:20:41.044Z,13.73
2018-10-17T12:23:10.078Z,13.93
2018-10-17T12:25:38.989Z,13.20
2018-10-17T12:28:08.123Z,13.40
2018-10-17T12:30:37.352Z,14.13
2018-10-17T12:33:06.927Z,14.20
2018-10-17T12:35:36.241Z,13.63
2018-10-17T12:38:05.567Z,14.17
2018-10-17T12:40:34.873Z,14.23
2018-10-17T12:43:04.133Z,14.10
2018-10-17T12:45:33.276Z,14.50
2018-10-17T12:48:03.360Z,14.67
2018-10-17T12:50:32.335Z,15.27
2018-10-17T12:53:02.132Z,13.97
2018-10-17T12:55:30.977Z,13.50
2018-10-17T12:58:00.460Z,14.33
2018-10-17T13:00:29.687Z,14.30
2018-10-17T13:02:58.796Z,13.60
2018-10-17T13:05:28.034Z,13.13
2018-10-17T13:07:57.215Z,14.50
2018-10-17T13:10:26.189Z,13.47
2018-10-17T13:12:55.508Z,13.67
2018-10-17T13:15:25.088Z,13.83
2018-10-17T13:17:53.968Z,14.27
2018-10-17T13:20:23.124Z,14.27
2018-10-17T13:22:52.602Z,14.53
2018-10-17T13:25:21.784Z,14.20
2018-10-17T13:27:51.183Z,14.23
2018-10-17T13:30:20.400Z,14.27
2018-10-17T13:32:49.944Z,12.73
2018-10-17T13:35:19.380Z,13.27
2018-10-17T13:37:48.203Z,14.67
2018-10-17T13:40:17.088Z,13.87
2018-10-17T13:42:46.196Z,14.07
2018-10-17T13:45:15.496Z,14.23
2018-10-17T13:47:44.434Z,14.07
2018-10-17T13:50:13.816Z,13.40
2018-10-17T13:52:43.148Z,14.07
2018-10-17T13:55:12.253Z,13.37
2018-10-17T13:57:41.286Z,13.87
2018-10-17T14:00:12.602Z,14.00
2018-10-17T14:02:42.577Z,13.60
2018-10-17T14:05:11.900Z,13.77
2018-10-17T14:07:40.992Z,13.70
2018-10-17T14:10:10.316Z,13.47
2018-10-17T14:12:39.351Z,13.17
2018-10-17T14:15:08.636Z,13.67
2018-10-17T14:17:37.642Z,13.30
2018-10-17T14:20:06.765Z,13.60
2018-10-17T14:22:35.964Z,13.27
2018-10-17T14:25:05.583Z,13.13
2018-10-17T14:27:34.827Z,12.77
2018-10-17T14:30:04.137Z,13.40
2018-10-17T14:32:33.998Z,13.07
2018-10-17T14:35:03.292Z,13.53
2018-10-17T14:37:32.735Z,13.03
2018-10-17T14:40:01.911Z,12.83
2018-10-17T14:42:31.024Z,12.83
2018-10-17T14:45:00.284Z,13.47
2018-10-17T14:47:29.556Z,13.20
2018-10-17T14:49:58.643Z,12.90
2018-10-17T14:52:27.884Z,12.93
2018-10-17T14:54:57.116Z,13.00
2018-10-17T14:57:26.152Z,12.80
2018-10-17T14:59:55.339Z,13.37
2018-10-17T15:02:24.324Z,12.73
2018-10-17T15:04:53.311Z,13.03
2018-10-17T15:07:22.580Z,12.47
2018-10-17T15:09:51.730Z,12.70
2018-10-17T15:12:20.902Z,12.80
2018-10-17T15:14:49.969Z,13.47
2018-10-17T15:17:19.163Z,13.13
2018-10-17T15:19:48.512Z,13.57
2018-10-17T15:22:17.575Z,12.77
2018-10-17T15:24:46.547Z,13.37
2018-10-17T15:27:15.897Z,13.07
2018-10-17T15:29:44.937Z,11.80
2018-10-17T15:32:14.143Z,12.83
2018-10-17T15:34:43.321Z,12.50
2018-10-17T15:37:12.863Z,13.17
2018-10-17T15:39:42.121Z,12.43
2018-10-17T15:42:11.959Z,12.73
2018-10-17T15:44:41.628Z,12.03
2018-10-17T15:47:10.605Z,12.70
2018-10-17T15:49:40.024Z,12.53
2018-10-17T15:52:09.339Z,13.03
2018-10-17T15:54:38.608Z,12.53
2018-10-17T15:57:07.885Z,13.80
2018-10-17T15:59:37.028Z,14.40
2018-10-17T16:02:06.512Z,13.73
2018-10-17T16:04:35.458Z,14.13
2018-10-17T16:07:04.824Z,13.53
2018-10-17T16:09:35.046Z,13.83
2018-10-17T16:12:04.410Z,14.13
2018-10-17T16:14:33.464Z,14.10
2018-10-17T16:17:02.495Z,14.30
2018-10-17T16:19:31.428Z,14.03
2018-10-17T16:22:00.508Z,14.10
2018-10-17T16:24:29.672Z,15.10
2018-10-17T16:26:58.836Z,15.63
2018-10-17T16:29:27.900Z,14.97
2018-10-17T16:31:57.132Z,15.27
2018-10-17T16:34:26.138Z,14.20
2018-10-17T16:36:55.323Z,14.17
2018-10-17T16:39:24.460Z,14.57
2018-10-17T16:41:53.657Z,14.47
2018-10-17T16:44:22.980Z,14.70
2018-10-17T16:46:51.915Z,15.87
2018-10-17T16:49:21.123Z,14.20
2018-10-17T16:51:50.352Z,13.83
2018-10-17T16:54:19.729Z,15.90
2018-10-17T16:56:49.239Z,15.63
2018-10-17T16:59:18.741Z,15.70
2018-10-17T17:01:47.961Z,16.63
2018-10-17T17:04:17.081Z,16.40
2018-10-17T17:06:46.037Z,14.57
2018-10-17T17:09:15.259Z,16.17
2018-10-17T17:11:44.296Z,16.23
2018-10-17T17:14:13.332Z,15.63
2018-10-17T17:16:42.568Z,16.60
2018-10-17T17:19:11.639Z,16.30
2018-10-17T17:21:40.757Z,17.00
2018-10-17T17:24:10.029Z,15.67
2018-10-17T17:26:39.408Z,15.43
2018-10-17T17:29:08.607Z,16.90
2018-10-17T17:31:37.568Z,17.37
2018-10-17T17:34:06.834Z,16.90
2018-10-17T17:36:35.988Z,17.27
2018-10-17T17:39:06.839Z,16.93
2018-10-17T17:41:36.009Z,17.87
2018-10-17T17:44:05.467Z,17.23
2018-10-17T17:46:34.726Z,18.03
2018-10-17T17:49:04.487Z,18.10
2018-10-17T17:51:33.425Z,18.17
2018-10-17T17:54:02.520Z,18.03
2018-10-17T17:56:31.558Z,17.37
2018-10-17T17:59:00.884Z,18.00
2018-10-17T18:01:30.204Z,19.13
2018-10-17T18:03:59.713Z,19.27
2018-10-17T18:06:28.940Z,18.00
2018-10-17T18:08:57.897Z,19.77
2018-10-17T18:13:18.611Z,18.70
2018-10-17T18:15:48.300Z,18.83
2018-10-17T18:18:18.344Z,19.70
2018-10-17T18:20:48.563Z,19.23
2018-10-17T18:23:18.567Z,18.50
2018-10-17T18:25:48.353Z,19.90
2018-10-17T18:28:18.298Z,20.30
2018-10-17T18:30:47.914Z,19.97
2018-10-17T18:33:17.543Z,20.17
2018-10-17T18:35:47.230Z,19.13
2018-10-17T18:38:17.084Z,20.83
2018-10-17T18:40:47.552Z,20.97
2018-10-17T18:43:17.213Z,21.30
2018-10-17T18:45:46.899Z,21.10
2018-10-17T18:48:16.530Z,20.50
2018-10-17T18:50:46.140Z,20.43
2018-10-17T18:53:15.949Z,21.47
2018-10-17T18:55:45.783Z,20.97
2018-10-17T18:58:15.726Z,20.43
2018-10-17T19:00:45.394Z,21.27
2018-10-17T19:03:15.437Z,20.80
2018-10-17T19:05:44.968Z,21.10
2018-10-17T19:08:14.841Z,19.93
2018-10-17T19:10:44.413Z,21.17
2018-10-17T19:13:14.044Z,21.67
2018-10-17T19:15:43.934Z,21.43
2018-10-17T19:18:13.830Z,20.57
2018-10-17T19:20:43.510Z,20.57
2018-10-17T19:23:12.953Z,20.30
2018-10-17T19:25:42.667Z,20.03
2018-10-17T19:28:13.253Z,20.57
2018-10-17T19:30:42.740Z,19.70
2018-10-17T19:33:12.875Z,20.90
2018-10-17T19:35:43.078Z,20.23
2018-10-17T19:38:12.734Z,19.73
2018-10-17T19:40:42.488Z,19.70
2018-10-17T19:43:12.291Z,20.70
2018-10-17T19:45:41.871Z,19.03
2018-10-17T19:48:11.873Z,19.27
2018-10-17T19:50:41.594Z,19.50
2018-10-17T19:53:11.444Z,18.10
2018-10-17T19:55:40.980Z,18.07
2018-10-17T19:58:10.969Z,18.63
2018-10-17T20:00:40.798Z,18.50
2018-10-17T20:03:10.530Z,19.30
2018-10-17T20:05:40.358Z,18.93
2018-10-17T20:08:11.292Z,18.30
2018-10-17T20:10:40.879Z,17.57
2018-10-17T20:13:10.537Z,17.50
2018-10-17T20:15:40.257Z,17.87
2018-10-17T20:18:10.312Z,18.37
2018-10-17T20:20:39.940Z,16.93
2018-10-17T20:23:09.685Z,16.43
2018-10-17T20:25:39.520Z,15.73
2018-10-17T20:28:09.297Z,16.90
2018-10-17T20:30:39.292Z,17.03
2018-10-17T20:33:08.895Z,16.40
2018-10-17T20:35:38.428Z,16.87
2018-10-17T20:38:08.359Z,17.27
2018-10-17T20:40:38.713Z,16.97
2018-10-17T20:43:09.457Z,16.80
2018-10-17T20:45:39.559Z,15.97
2018-10-17T20:48:09.560Z,15.47
2018-10-17T20:50:39.320Z,16.17
2018-10-17T20:53:09.020Z,15.90
2018-10-17T20:55:38.896Z,15.57
2018-10-17T20:58:08.579Z,15.63
2018-10-17T21:00:38.232Z,16.73
2018-10-17T21:03:07.837Z,15.67
2018-10-17T21:05:37.547Z,15.57
2018-10-17T21:08:07.408Z,16.20
2018-10-17T21:10:37.323Z,15.10
2018-10-17T21:13:07.055Z,15.23
2018-10-17T21:15:36.820Z,15.87
2018-10-17T21:18:06.777Z,15.37
2018-10-17T21:20:37.097Z,15.40
2018-10-17T21:23:07.803Z,15.30
2018-10-17T21:25:37.352Z,14.27
2018-10-17T21:28:07.617Z,13.97
2018-10-17T21:30:37.417Z,14.17
2018-10-17T21:33:07.324Z,15.10
2018-10-17T21:35:37.270Z,14.60
2018-10-17T21:38:07.480Z,15.43
2018-10-17T21:40:37.724Z,14.03
2018-10-17T21:43:07.515Z,15.53
2018-10-17T21:45:37.137Z,14.33
2018-10-17T21:48:07.163Z,14.33
2018-10-17T21:50:36.800Z,14.17
2018-10-17T21:53:06.668Z,14.80
2018-10-17T21:55:36.463Z,14.23
2018-10-17T21:58:06.516Z,14.60
2018-10-17T22:00:36.603Z,13.37
2018-10-17T22:03:06.779Z,14.47
2018-10-17T22:05:36.585Z,14.50
2018-10-17T22:08:06.510Z,14.83
2018-10-17T22:10:36.508Z,14.43
2018-10-17T22:13:07.120Z,14.00
2018-10-17T22:15:37.157Z,14.00
2018-10-17T22:18:07.540Z,14.50
2018-10-17T22:20:38.195Z,14.40
2018-10-17T22:23:07.933Z,14.70
2018-10-17T22:25:37.511Z,14.07
2018-10-17T22:28:07.243Z,14.87
2018-10-17T22:30:37.208Z,14.83
2018-10-17T22:33:06.990Z,14.43
2018-10-17T22:35:36.508Z,13.50
2018-10-17T22:38:07.672Z,13.90
2018-10-17T22:40:37.389Z,13.90
2018-10-17T22:43:07.779Z,13.93
2018-10-17T22:45:37.456Z,13.90
2018-10-17T22:48:07.668Z,13.87
2018-10-17T22:50:37.816Z,14.73
2018-10-17T22:53:07.744Z,14.33
2018-10-17T22:55:37.365Z,13.80
2018-10-17T22:58:07.575Z,14.27
2018-10-17T23:00:37.244Z,13.83
2018-10-17T23:03:06.812Z,14.33
2018-10-17T23:05:36.607Z,13.30
2018-10-17T23:08:06.472Z,13.70
2018-10-17T23:10:36.012Z,15.37
2018-10-17T23:13:05.854Z,13.77
2018-10-17T23:15:35.836Z,13.97
2018-10-17T23:18:06.987Z,14.73
2018-10-17T23:20:36.641Z,14.53
2018-10-17T23:23:06.502Z,14.93
2018-10-17T23:25:36.210Z,14.73
2018-10-17T23:28:06.368Z,14.47
2018-10-17T23:30:36.572Z,13.93
2018-10-17T23:33:06.162Z,14.83
2018-10-17T23:35:35.827Z,14.53
2018-10-17T23:38:05.436Z,14.43
2018-10-17T23:40:35.181Z,14.33
2018-10-17T23:43:05.680Z,15.57
2018-10-17T23:45:35.320Z,15.40
2018-10-17T23:48:06.120Z,15.27
2018-10-17T23:50:36.174Z,15.87
2018-10-17T23:53:06.077Z,15.23
2018-10-17T23:55:35.708Z,15.33
2018-10-17T23:58:05.744Z,16.57
